Time;durP1;ratioP1;P1;durP2;ratioP2;P2;SDS_P1;SDS_P2;PMS_P1;PMS_P2;Temp;Humidity;BMP_temperature;BMP_pressure;BME280_temperature;BME280_humidity;BME280_pressure;Samples;Min_cycle;Max_cycle;Signal;HPM_P1;HPM_P2
2022/05/12 00:00:09;;;;;;;3.33;2.00;;;23.10;69.80;;;;;;5012746;28;20463;-68
2022/05/12 00:02:36;;;;;;;6.50;2.60;;;23.20;69.50;;;;;;5013012;28;20464;-67
2022/05/12 00:05:06;;;;;;;2.77;2.10;;;23.20;69.50;;;;;;5011577;28;20464;-67
2022/05/12 00:07:33;;;;;;;3.73;2.27;;;23.20;70.20;;;;;;5012852;28;20468;-67
2022/05/12 00:10:01;;;;;;;3.13;2.30;;;23.20;69.90;;;;;;5012880;28;20535;-68
2022/05/12 00:12:28;;;;;;;2.17;2.00;;;23.20;70.10;;;;;;5012788;28;20494;-67
2022/05/12 00:14:55;;;;;;;2.03;1.70;;;23.10;70.10;;;;;;5012931;28;20513;-68
2022/05/12 00:17:24;;;;;;;3.10;2.00;;;23.10;70.00;;;;;;5013013;28;20528;-67
2022/05/12 00:19:51;;;;;;;2.90;1.93;;;23.10;70.20;;;;;;5011772;28;20462;-67
2022/05/12 00:22:19;;;;;;;2.60;2.30;;;23.10;70.10;;;;;;5011072;28;20471;-67
2022/05/12 00:24:46;;;;;;;2.10;1.90;;;23.10;70.60;;;;;;5012433;28;20463;-67
2022/05/12 00:27:13;;;;;;;3.40;2.10;;;23.10;70.40;;;;;;5011964;28;20984;-67
2022/05/12 00:29:40;;;;;;;2.43;1.80;;;23.10;70.60;;;;;;5012179;28;20487;-68
2022/05/12 00:32:08;;;;;;;5.57;2.03;;;23.10;70.90;;;;;;5012492;28;20514;-67
2022/05/12 00:34:38;;;;;;;3.20;2.10;;;23.00;70.70;;;;;;5012170;28;20455;-67
2022/05/12 00:37:06;;;;;;;3.13;2.20;;;23.00;71.10;;;;;;5012301;28;20462;-67
2022/05/12 00:39:34;;;;;;;5.10;2.10;;;23.00;70.80;;;;;;5012093;28;21008;-67
2022/05/12 00:42:02;;;;;;;2.17;1.80;;;23.00;70.90;;;;;;5012277;28;20822;-67
2022/05/12 00:44:29;;;;;;;3.07;2.00;;;23.00;71.40;;;;;;5012105;28;20503;-67
2022/05/12 00:46:56;;;;;;;2.17;1.70;;;22.90;71.20;;;;;;5012140;28;20452;-67
2022/05/12 00:49:25;;;;;;;3.37;2.27;;;22.90;71.40;;;;;;5011895;28;20494;-67
2022/05/12 00:51:57;;;;;;;2.67;2.10;;;22.80;71.80;;;;;;5012529;28;20464;-67
2022/05/12 00:54:30;;;;;;;3.10;1.80;;;22.80;72.10;;;;;;5010826;28;20459;-67
2022/05/12 00:57:00;;;;;;;3.90;1.90;;;22.70;72.30;;;;;;5012349;28;20529;-67
2022/05/12 00:59:29;;;;;;;4.40;2.70;;;22.70;72.40;;;;;;5012055;28;20538;-68
2022/05/12 01:01:58;;;;;;;2.60;1.90;;;22.60;72.40;;;;;;5012282;28;20522;-67
2022/05/12 01:04:26;;;;;;;2.70;1.77;;;22.60;72.80;;;;;;5012078;28;20462;-67
2022/05/12 01:06:54;;;;;;;2.03;1.73;;;22.60;73.00;;;;;;5012423;28;20490;-67
2022/05/12 01:09:22;;;;;;;3.93;2.30;;;22.70;73.30;;;;;;5011986;28;20486;-67
2022/05/12 01:11:49;;;;;;;2.17;1.77;;;22.60;73.80;;;;;;5012054;28;20965;-68
2022/05/12 01:14:18;;;;;;;2.60;2.00;;;22.70;74.10;;;;;;5012146;28;20451;-68
2022/05/12 01:16:49;;;;;;;2.97;2.07;;;22.60;74.30;;;;;;5010979;28;20466;-68
2022/05/12 01:19:21;;;;;;;3.37;1.90;;;22.60;74.40;;;;;;5012241;28;21028;-67
2022/05/12 01:21:49;;;;;;;2.80;1.73;;;22.50;74.50;;;;;;5012237;28;20455;-67
2022/05/12 01:24:19;;;;;;;4.17;2.13;;;22.30;75.50;;;;;;5011849;28;20558;-67
2022/05/12 01:26:47;;;;;;;2.97;2.07;;;22.10;75.50;;;;;;5011919;28;20463;-67
2022/05/12 01:29:14;;;;;;;1.63;1.57;;;22.00;75.90;;;;;;5010480;28;20487;-67
2022/05/12 01:31:42;;;;;;;2.67;1.73;;;22.00;76.10;;;;;;5011918;28;20534;-68
2022/05/12 01:34:10;;;;;;;3.60;2.20;;;22.00;76.10;;;;;;5011661;28;20467;-68
2022/05/12 01:36:38;;;;;;;2.43;1.73;;;22.00;76.00;;;;;;5011769;28;20459;-68
2022/05/12 01:39:06;;;;;;;3.13;2.20;;;22.00;75.70;;;;;;5012435;28;20526;-67
2022/05/12 01:41:35;;;;;;;2.70;1.70;;;22.10;75.60;;;;;;5015548;28;20463;-67
2022/05/12 01:44:04;;;;;;;3.40;2.13;;;22.00;75.20;;;;;;5015421;28;21103;-67
2022/05/12 01:46:31;;;;;;;2.40;1.73;;;22.00;75.40;;;;;;5014472;28;20794;-67
2022/05/12 01:48:58;;;;;;;2.43;1.80;;;22.00;75.50;;;;;;5015139;28;20486;-67
2022/05/12 01:51:27;;;;;;;2.80;2.00;;;21.90;76.80;;;;;;5015398;28;20552;-67
2022/05/12 01:53:54;;;;;;;2.50;2.10;;;21.80;76.70;;;;;;5015305;28;20550;-67
2022/05/12 01:56:21;;;;;;;3.10;2.10;;;21.70;76.90;;;;;;5015110;28;20455;-67
2022/05/12 01:58:50;;;;;;;3.70;2.27;;;21.60;77.90;;;;;;5015173;28;20470;-67
2022/05/12 02:01:17;;;;;;;3.30;1.80;;;21.40;78.50;;;;;;5015039;28;20459;-67
2022/05/12 02:03:44;;;;;;;2.33;1.83;;;21.20;79.60;;;;;;5015229;28;20468;-67
2022/05/12 02:06:11;;;;;;;3.10;2.03;;;20.90;81.80;;;;;;5015091;28;20467;-67
2022/05/12 02:08:38;;;;;;;2.33;1.97;;;20.70;81.10;;;;;;5015303;28;20487;-67
2022/05/12 02:11:06;;;;;;;4.10;2.00;;;20.80;80.70;;;;;;5015091;28;20455;-68
2022/05/12 02:13:34;;;;;;;3.07;1.97;;;20.70;81.10;;;;;;5013798;28;20459;-67
2022/05/12 02:16:02;;;;;;;3.20;2.30;;;20.60;81.60;;;;;;5015341;28;20462;-67
2022/05/12 02:18:30;;;;;;;2.30;1.93;;;20.50;81.90;;;;;;5013833;28;20816;-67
2022/05/12 02:20:58;;;;;;;3.60;1.90;;;20.50;81.80;;;;;;5014715;28;20984;-67
2022/05/12 02:23:25;;;;;;;2.67;2.17;;;20.50;81.70;;;;;;5014812;28;20501;-67
2022/05/12 02:25:52;;;;;;;3.27;2.00;;;20.40;82.50;;;;;;5014610;28;20510;-67
2022/05/12 02:28:19;;;;;;;2.60;2.00;;;20.40;82.80;;;;;;5014307;28;20482;-68
2022/05/12 02:30:46;;;;;;;2.20;1.73;;;20.40;82.60;;;;;;5014661;28;20456;-67
2022/05/12 02:33:15;;;;;;;2.83;1.73;;;20.40;82.20;;;;;;5014413;28;20464;-67
2022/05/12 02:35:43;;;;;;;2.23;1.70;;;20.40;83.20;;;;;;5014307;28;20522;-68
2022/05/12 02:38:13;;;;;;;3.23;2.03;;;20.50;83.20;;;;;;5014161;28;20536;-67
2022/05/12 02:40:40;;;;;;;2.30;1.87;;;20.60;83.00;;;;;;5013315;28;20474;-67
2022/05/12 02:43:23;;;;;;;3.07;1.93;;;20.50;82.80;;;;;;5014230;28;20478;-67
2022/05/12 02:45:51;;;;;;;2.03;1.80;;;20.60;82.60;;;;;;5014416;28;20482;-68
2022/05/12 02:48:21;;;;;;;1.83;1.70;;;20.60;82.60;;;;;;5014077;28;20937;-68
2022/05/12 02:50:49;;;;;;;4.70;1.80;;;20.60;84.10;;;;;;5013792;28;20491;-68
2022/05/12 02:53:16;;;;;;;3.33;2.00;;;20.60;83.60;;;;;;5014126;28;20464;-67
2022/05/12 02:55:44;;;;;;;2.80;2.03;;;20.40;84.50;;;;;;5014495;28;20800;-68
2022/05/12 02:58:11;;;;;;;1.70;1.60;;;20.40;84.50;;;;;;5012840;28;20509;-67
2022/05/12 03:00:39;;;;;;;2.73;2.10;;;20.20;85.60;;;;;;5013998;28;20542;-68
2022/05/12 03:03:07;;;;;;;3.00;1.70;;;20.20;85.30;;;;;;5013228;28;20451;-68
2022/05/12 03:05:36;;;;;;;2.13;1.70;;;20.20;85.80;;;;;;5014110;28;20478;-67
2022/05/12 03:08:04;;;;;;;2.40;1.80;;;20.20;85.60;;;;;;5014005;28;20522;-67
2022/05/12 03:10:32;;;;;;;3.10;2.20;;;20.20;85.90;;;;;;5014026;28;20505;-67
2022/05/12 03:12:59;;;;;;;4.50;2.77;;;20.20;86.50;;;;;;5013940;28;20525;-67
2022/05/12 03:15:27;;;;;;;2.30;1.80;;;20.30;86.30;;;;;;5013622;28;20460;-67
2022/05/12 03:17:57;;;;;;;1.50;1.47;;;20.20;86.90;;;;;;5013793;28;20945;-67
2022/05/12 03:20:26;;;;;;;2.20;1.53;;;20.20;87.00;;;;;;5013207;28;20462;-68
2022/05/12 03:22:54;;;;;;;2.30;1.53;;;20.20;87.10;;;;;;5013801;28;20459;-67
2022/05/12 03:25:22;;;;;;;2.43;1.87;;;20.30;87.60;;;;;;5013381;28;20849;-67
2022/05/12 03:27:49;;;;;;;3.73;1.80;;;20.30;87.90;;;;;;5013325;28;20471;-67
2022/05/12 03:30:20;;;;;;;3.20;1.53;;;20.30;87.90;;;;;;5013207;28;20491;-67
2022/05/12 03:32:47;;;;;;;3.00;1.80;;;20.30;88.00;;;;;;5013094;28;20478;-67
2022/05/12 03:35:16;;;;;;;3.23;1.80;;;20.20;88.40;;;;;;5013170;28;20984;-67
2022/05/12 03:37:43;;;;;;;1.87;1.63;;;20.30;88.70;;;;;;5013247;28;21027;-67
2022/05/12 03:40:17;;;;;;;2.07;1.60;;;20.20;89.10;;;;;;5013115;28;20459;-68
2022/05/12 03:42:45;;;;;;;1.50;1.30;;;20.20;89.20;;;;;;5013326;28;20467;-67
2022/05/12 03:45:11;;;;;;;1.70;1.50;;;20.10;89.80;;;;;;5013016;28;20467;-68
2022/05/12 03:47:41;;;;;;;2.47;1.60;;;20.00;90.30;;;;;;5013191;28;20456;-67
2022/05/12 03:50:13;;;;;;;2.60;2.00;;;19.90;90.60;;;;;;5013134;28;20493;-67
2022/05/12 03:52:40;;;;;;;2.00;1.80;;;19.90;90.90;;;;;;5013250;28;20455;-67
2022/05/12 03:55:11;;;;;;;2.80;1.50;;;20.00;91.00;;;;;;5012116;28;20784;-67
2022/05/12 03:57:41;;;;;;;1.80;1.50;;;20.10;91.20;;;;;;5012924;28;20463;-67
2022/05/12 04:00:13;;;;;;;2.17;1.87;;;20.00;91.40;;;;;;5012997;28;20478;-67
2022/05/12 04:02:41;;;;;;;2.20;1.70;;;19.90;91.60;;;;;;5011190;28;20471;-68
2022/05/12 04:05:09;;;;;;;2.20;1.73;;;19.90;91.80;;;;;;5013011;28;20458;-67
2022/05/12 04:07:42;;;;;;;2.37;1.83;;;19.90;91.80;;;;;;5012947;28;20933;-67
2022/05/12 04:10:10;;;;;;;1.83;1.50;;;19.90;91.70;;;;;;5012954;28;20494;-68
2022/05/12 04:12:37;;;;;;;1.80;1.50;;;20.00;92.10;;;;;;5012890;28;20464;-67
2022/05/12 04:15:08;;;;;;;2.60;1.80;;;19.80;92.30;;;;;;5012948;28;20478;-68
2022/05/12 04:17:35;;;;;;;2.27;1.40;;;19.70;92.80;;;;;;5011491;28;20459;-67
2022/05/12 04:20:04;;;;;;;2.03;1.57;;;19.80;92.60;;;;;;5012669;28;20464;-67
2022/05/12 04:22:31;;;;;;;2.53;1.63;;;19.80;92.70;;;;;;5012480;28;20467;-68
2022/05/12 04:24:58;;;;;;;2.23;1.50;;;19.80;92.80;;;;;;5012627;28;20840;-67
2022/05/12 04:27:26;;;;;;;1.53;1.30;;;19.80;93.00;;;;;;5012354;28;20475;-67
2022/05/12 04:29:52;;;;;;;1.30;1.30;;;19.80;93.20;;;;;;5011125;28;21039;-67
2022/05/12 04:32:21;;;;;;;1.97;1.50;;;19.80;93.10;;;;;;5012310;28;20463;-67
2022/05/12 04:37:33;;;;;;;1.40;1.30;;;19.90;93.00;;;;;;5012447;28;20782;-67
2022/05/12 04:40:06;;;;;;;2.23;1.63;;;19.90;93.20;;;;;;5012437;28;20526;-67
2022/05/12 04:42:33;;;;;;;2.23;1.50;;;19.90;93.00;;;;;;5012310;28;20463;-67
2022/05/12 04:45:01;;;;;;;1.90;1.50;;;19.90;93.10;;;;;;5012009;28;20506;-67
2022/05/12 04:47:29;;;;;;;1.30;1.30;;;19.90;93.60;;;;;;5012170;28;20486;-67
2022/05/12 04:49:58;;;;;;;2.73;1.60;;;19.90;93.40;;;;;;5012159;28;20554;-67
2022/05/12 04:52:25;;;;;;;2.20;1.47;;;19.90;93.90;;;;;;5012093;28;20478;-67
2022/05/12 04:54:54;;;;;;;1.60;1.27;;;19.90;94.10;;;;;;5012419;28;20470;-67
2022/05/12 04:57:21;;;;;;;1.60;1.33;;;19.80;93.60;;;;;;5012139;28;20459;-67
2022/05/12 04:59:49;;;;;;;1.83;1.57;;;19.80;94.10;;;;;;5012212;28;20462;-67
2022/05/12 05:02:16;;;;;;;1.63;1.33;;;19.80;94.50;;;;;;5012308;28;20455;-67
2022/05/12 05:04:52;;;;;;;2.47;1.53;;;19.80;94.40;;;;;;5012091;28;20454;-67
2022/05/12 05:07:19;;;;;;;1.87;1.60;;;19.80;95.10;;;;;;5012176;28;20459;-68
2022/05/12 05:09:47;;;;;;;2.00;1.60;;;19.80;95.10;;;;;;5012124;28;20491;-67
2022/05/12 05:12:14;;;;;;;2.17;1.60;;;19.80;95.70;;;;;;5012432;28;20463;-67
2022/05/12 05:14:41;;;;;;;1.60;1.37;;;19.80;95.40;;;;;;5016457;28;20463;-67
2022/05/12 05:17:09;;;;;;;1.50;1.40;;;19.80;95.70;;;;;;5016425;28;20513;-68
2022/05/12 05:19:36;;;;;;;1.40;1.23;;;19.90;96.00;;;;;;5016002;28;20814;-67
2022/05/12 05:22:05;;;;;;;1.80;1.50;;;19.90;95.80;;;;;;5015804;28;20459;-67
2022/05/12 05:24:32;;;;;;;2.33;1.60;;;20.00;96.00;;;;;;5015898;28;20443;-68
2022/05/12 05:27:00;;;;;;;2.23;1.60;;;20.00;95.80;;;;;;5015784;28;20455;-68
2022/05/12 05:29:27;;;;;;;1.30;1.27;;;19.90;95.90;;;;;;5014191;28;20460;-68
2022/05/12 05:31:54;;;;;;;2.60;1.50;;;19.90;96.50;;;;;;5015537;28;20541;-67
2022/05/12 05:34:22;;;;;;;2.30;1.57;;;19.90;96.40;;;;;;5014648;28;20455;-66
2022/05/12 05:36:49;;;;;;;1.63;1.60;;;20.00;96.40;;;;;;5014882;28;20677;-67
2022/05/12 05:39:21;;;;;;;2.07;1.50;;;19.90;96.60;;;;;;5014693;28;20459;-67
2022/05/12 05:41:48;;;;;;;2.13;1.40;;;20.10;96.10;;;;;;5015044;28;20460;-67
2022/05/12 05:44:16;;;;;;;4.80;2.03;;;20.10;96.30;;;;;;5014528;28;20474;-67
2022/05/12 05:46:43;;;;;;;2.03;1.47;;;20.20;95.80;;;;;;5014789;28;20474;-67
2022/05/12 05:49:10;;;;;;;2.03;1.73;;;20.20;96.30;;;;;;5014480;28;20459;-67
2022/05/12 05:54:23;;;;;;;2.30;1.77;;;20.40;96.90;;;;;;5014599;28;20562;-68
2022/05/12 05:56:50;;;;;;;2.70;2.00;;;20.40;97.00;;;;;;5014594;28;20876;-67
2022/05/12 05:59:17;;;;;;;2.03;1.40;;;20.50;96.40;;;;;;5013298;28;20976;-67
2022/05/12 06:01:45;;;;;;;2.00;1.70;;;20.50;96.20;;;;;;5013360;28;20486;-65
2022/05/12 06:04:12;;;;;;;1.30;1.30;;;20.40;97.00;;;;;;5014458;28;20459;-64
2022/05/12 06:06:39;;;;;;;1.87;1.57;;;20.50;97.50;;;;;;5013230;28;20468;-64
2022/05/12 06:09:06;;;;;;;2.87;1.77;;;20.40;96.90;;;;;;5014481;28;20455;-64
2022/05/12 06:11:35;;;;;;;2.07;1.43;;;20.60;97.10;;;;;;5012997;28;20545;-64
2022/05/12 06:14:02;;;;;;;2.37;1.47;;;20.60;96.30;;;;;;5014025;28;20467;-64
2022/05/12 06:16:29;;;;;;;3.50;1.93;;;20.60;95.80;;;;;;5014241;28;20859;-64
2022/05/12 06:18:56;;;;;;;2.30;1.40;;;20.50;96.50;;;;;;5014640;28;20470;-64
2022/05/12 06:21:23;;;;;;;1.97;1.60;;;20.60;96.40;;;;;;5014140;28;20464;-65
2022/05/12 06:23:57;;;;;;;2.10;1.70;;;20.60;96.30;;;;;;5013521;28;20460;-64
2022/05/12 06:26:24;;;;;;;1.77;1.30;;;20.60;96.50;;;;;;5012783;28;20458;-64
2022/05/12 06:28:53;;;;;;;1.50;1.47;;;20.60;96.30;;;;;;5013790;28;20456;-64
2022/05/12 06:31:29;;;;;;;1.60;1.40;;;20.60;96.40;;;;;;5013699;28;20487;-65
2022/05/12 06:33:57;;;;;;;1.37;1.27;;;20.60;95.50;;;;;;5013849;28;20467;-64
2022/05/12 06:36:25;;;;;;;1.60;1.30;;;20.70;95.40;;;;;;5013710;28;20460;-64
2022/05/12 06:38:52;;;;;;;1.80;1.50;;;20.50;95.70;;;;;;5012505;28;20459;-64
2022/05/12 06:41:20;;;;;;;2.30;1.40;;;20.50;95.70;;;;;;5013674;28;20463;-64
2022/05/12 06:43:47;;;;;;;1.63;1.30;;;20.40;95.40;;;;;;5013716;28;20471;-64
2022/05/12 06:46:17;;;;;;;1.93;1.43;;;20.40;96.60;;;;;;5013650;28;20448;-65
2022/05/12 06:48:44;;;;;;;1.67;1.40;;;20.50;96.90;;;;;;5013175;28;20463;-64
2022/05/12 06:51:12;;;;;;;2.07;1.40;;;20.40;96.00;;;;;;5013677;28;20514;-64
2022/05/12 06:53:39;;;;;;;1.70;1.40;;;20.50;96.40;;;;;;5013040;28;20499;-65
2022/05/12 06:56:07;;;;;;;2.00;1.33;;;20.70;96.90;;;;;;5013436;28;20474;-64
2022/05/12 06:58:35;;;;;;;2.90;1.63;;;20.70;95.60;;;;;;5013296;28;20557;-64
2022/05/12 07:01:02;;;;;;;1.60;1.53;;;20.80;96.00;;;;;;5013258;28;20463;-65
2022/05/12 07:03:31;;;;;;;1.70;1.37;;;20.90;96.20;;;;;;5013130;28;20464;-64
2022/05/12 07:05:59;;;;;;;2.63;1.57;;;20.90;95.60;;;;;;5013032;28;20468;-64
2022/05/12 07:08:27;;;;;;;1.50;1.20;;;20.90;96.20;;;;;;5009434;28;20455;-64
2022/05/12 07:10:54;;;;;;;1.50;1.30;;;20.80;95.50;;;;;;5009369;28;20523;-64
2022/05/12 07:13:23;;;;;;;1.50;1.30;;;20.70;96.20;;;;;;5010559;28;20470;-65
2022/05/12 07:15:51;;;;;;;1.50;1.40;;;20.60;96.30;;;;;;5010535;28;20532;-63
2022/05/12 07:18:19;;;;;;;1.50;1.40;;;20.70;96.60;;;;;;5010683;28;20816;-64
2022/05/12 07:29:01;;;;;;;1.30;1.30;;;20.70;96.80;;;;;;5010303;28;20501;-66
2022/05/12 07:31:28;;;;;;;1.30;1.20;;;20.80;96.20;;;;;;5009981;28;21006;-66
2022/05/12 07:33:57;;;;;;;1.80;1.30;;;20.80;96.50;;;;;;5010206;28;20984;-66
2022/05/12 07:36:27;;;;;;;1.83;1.27;;;20.80;96.50;;;;;;5010080;28;20451;-66
2022/05/12 07:38:56;;;;;;;1.30;1.20;;;20.90;97.80;;;;;;5010089;28;20878;-67
2022/05/12 07:41:24;;;;;;;1.30;1.20;;;20.90;95.60;;;;;;5009992;28;20467;-67
2022/05/12 07:43:52;;;;;;;1.50;1.30;;;20.80;97.10;;;;;;5009755;28;20463;-67
2022/05/12 07:46:23;;;;;;;1.87;1.40;;;21.00;96.10;;;;;;5008577;28;20969;-67
2022/05/12 07:48:51;;;;;;;1.33;1.17;;;21.00;96.80;;;;;;5009900;28;20483;-65
2022/05/12 07:51:21;;;;;;;1.70;1.30;;;21.20;96.90;;;;;;5007481;28;20970;-67
2022/05/12 07:53:51;;;;;;;1.60;1.30;;;21.50;95.70;;;;;;5008517;28;20940;-68
2022/05/12 07:56:19;;;;;;;1.60;1.37;;;21.70;94.20;;;;;;5009717;28;20456;-66
2022/05/12 07:58:47;;;;;;;1.40;1.40;;;21.90;93.90;;;;;;5008413;28;20463;-66
2022/05/12 08:01:15;;;;;;;1.37;1.20;;;21.90;93.00;;;;;;5009662;28;20503;-67
2022/05/12 08:03:44;;;;;;;1.30;1.30;;;22.00;94.30;;;;;;5008460;28;20456;-66
2022/05/12 08:06:14;;;;;;;1.30;1.17;;;21.90;93.70;;;;;;5009651;28;20456;-65
2022/05/12 08:08:42;;;;;;;1.50;1.33;;;21.90;93.30;;;;;;5008690;28;20992;-64
2022/05/12 08:11:11;;;;;;;1.63;1.47;;;21.80;94.00;;;;;;5006119;28;20492;-65
2022/05/12 08:13:39;;;;;;;2.80;1.50;;;21.70;94.20;;;;;;5009371;28;20466;-63
2022/05/12 08:16:07;;;;;;;2.23;1.60;;;21.90;94.50;;;;;;5009490;28;20462;-64
2022/05/12 08:18:36;;;;;;;1.70;1.40;;;22.10;93.20;;;;;;5009431;28;20467;-64
2022/05/12 08:21:03;;;;;;;1.83;1.50;;;22.20;92.80;;;;;;5009645;28;21065;-66
2022/05/12 08:23:30;;;;;;;1.87;1.50;;;22.40;92.40;;;;;;5009534;28;20514;-65
2022/05/12 08:25:57;;;;;;;3.43;1.40;;;22.40;92.00;;;;;;5009757;28;20933;-64
2022/05/12 08:28:26;;;;;;;2.57;1.60;;;22.40;92.40;;;;;;5008257;28;20458;-63
2022/05/12 08:30:55;;;;;;;2.07;1.50;;;22.40;93.40;;;;;;5008789;28;20516;-64
2022/05/12 08:33:22;;;;;;;2.03;1.60;;;22.30;94.10;;;;;;5009419;28;20533;-64
2022/05/12 08:35:51;;;;;;;1.70;1.60;;;22.40;92.10;;;;;;5009640;28;20958;-64
2022/05/12 08:38:19;;;;;;;2.10;1.50;;;22.30;92.80;;;;;;5009388;28;20467;-63
2022/05/12 08:40:59;;;;;;;1.60;1.50;;;22.30;93.40;;;;;;5009378;28;20892;-64
2022/05/12 08:43:36;;;;;;;1.30;1.30;;;22.50;92.60;;;;;;5008765;28;20475;-64
2022/05/12 08:46:06;;;;;;;2.00;1.80;;;22.60;92.60;;;;;;5009165;28;20467;-64
2022/05/12 08:48:33;;;;;;;2.10;1.47;;;22.60;91.10;;;;;;5009416;28;20880;-64
2022/05/12 08:51:00;;;;;;;2.70;1.93;;;22.60;91.80;;;;;;5008027;28;20494;-64
2022/05/12 08:53:35;;;;;;;2.80;1.50;;;22.70;92.60;;;;;;5010300;28;20471;-64
2022/05/12 08:56:03;;;;;;;1.60;1.53;;;22.80;92.30;;;;;;5009531;28;20451;-63
2022/05/12 08:58:35;;;;;;;2.47;1.80;;;22.80;91.20;;;;;;5008912;28;20464;-64
2022/05/12 09:01:06;;;;;;;1.57;1.50;;;22.70;91.40;;;;;;5010971;28;20667;-64
2022/05/12 09:03:49;;;;;;;1.60;1.43;;;22.60;91.50;;;;;;5010068;28;20455;-65
2022/05/12 09:06:22;;;;;;;1.53;1.43;;;22.60;91.70;;;;;;5002055;28;20474;-64
2022/05/12 09:08:56;;;;;;;1.83;1.60;;;22.70;92.40;;;;;;5007810;28;20486;-64
2022/05/12 09:11:29;;;;;;;1.73;1.57;;;22.70;92.70;;;;;;5007736;28;20866;-64
2022/05/12 09:14:00;;;;;;;3.60;2.10;;;22.70;92.60;;;;;;5009239;28;20476;-64
2022/05/12 09:16:31;;;;;;;1.87;1.40;;;22.70;91.70;;;;;;5009120;28;20459;-64
2022/05/12 09:19:00;;;;;;;2.47;1.60;;;22.60;93.70;;;;;;5008966;28;20451;-64
2022/05/12 09:21:30;;;;;;;2.63;1.90;;;22.70;91.60;;;;;;5008755;28;20509;-63
2022/05/12 09:23:58;;;;;;;2.40;1.87;;;22.80;92.90;;;;;;5009230;28;20463;-64
2022/05/12 09:26:37;;;;;;;1.70;1.30;;;23.00;91.60;;;;;;5007359;28;20554;-64
2022/05/12 09:29:17;;;;;;;2.37;1.60;;;23.20;92.50;;;;;;5008789;28;20471;-63
2022/05/12 09:31:47;;;;;;;2.50;1.80;;;23.30;92.30;;;;;;5008710;28;20522;-64
2022/05/12 09:34:27;;;;;;;1.63;1.50;;;23.30;91.30;;;;;;5008712;28;20459;-63
2022/05/12 09:36:55;;;;;;;3.90;1.83;;;23.40;91.90;;;;;;5009174;28;20821;-64
2022/05/12 09:39:41;;;;;;;2.67;2.07;;;23.60;91.00;;;;;;5009297;28;20466;-64
2022/05/12 09:42:15;;;;;;;2.30;1.87;;;23.70;90.70;;;;;;5000656;28;20466;-64
2022/05/12 09:44:54;;;;;;;1.83;1.57;;;23.80;90.30;;;;;;5008540;28;20526;-64
2022/05/12 09:47:21;;;;;;;2.67;1.80;;;23.90;91.60;;;;;;5008447;28;20451;-64
2022/05/12 09:49:49;;;;;;;2.27;1.80;;;24.10;90.70;;;;;;5006536;28;21444;-64
2022/05/12 09:52:31;;;;;;;2.57;1.80;;;24.20;87.90;;;;;;5008437;28;20572;-63
2022/05/12 09:55:18;;;;;;;1.80;1.60;;;23.90;89.00;;;;;;5008137;28;20996;-64
2022/05/12 09:57:52;;;;;;;2.27;1.70;;;23.70;88.60;;;;;;5008394;28;20475;-64
2022/05/12 10:00:32;;;;;;;1.90;1.57;;;23.60;88.90;;;;;;5010696;28;20860;-64
2022/05/12 10:08:44;;;;;;;2.40;1.67;;;23.90;90.20;;;;;;5010882;28;20529;-64
2022/05/12 10:11:14;;;;;;;5.40;2.10;;;23.80;90.60;;;;;;5011843;28;20487;-64
2022/05/12 10:13:47;;;;;;;2.70;1.80;;;23.80;89.80;;;;;;5010739;28;20958;-64
2022/05/12 10:16:19;;;;;;;2.10;1.80;;;23.90;89.30;;;;;;5011651;28;20542;-64
2022/05/12 10:18:48;;;;;;;1.90;1.57;;;24.20;90.00;;;;;;5011758;28;21035;-64
2022/05/12 10:21:22;;;;;;;3.53;2.13;;;24.40;88.40;;;;;;5011618;28;20465;-64
2022/05/12 10:24:00;;;;;;;3.67;2.50;;;24.60;88.60;;;;;;4994872;28;20831;-64
2022/05/12 10:26:36;;;;;;;2.80;2.00;;;24.80;87.90;;;;;;5011756;28;20456;-64
2022/05/12 10:29:13;;;;;;;2.70;1.93;;;25.10;87.10;;;;;;5012190;28;20550;-63
2022/05/12 10:31:54;;;;;;;4.57;2.30;;;25.30;87.00;;;;;;5011740;28;20549;-64
2022/05/12 10:34:35;;;;;;;2.63;2.40;;;25.70;86.30;;;;;;5011498;28;20463;-64
2022/05/12 10:37:07;;;;;;;2.33;1.97;;;25.70;85.90;;;;;;5011282;28;20977;-64
2022/05/12 10:39:46;;;;;;;3.00;2.27;;;25.60;84.80;;;;;;5011165;28;21024;-64
2022/05/12 10:42:34;;;;;;;2.97;2.20;;;25.50;85.50;;;;;;5011079;28;20451;-64
2022/05/12 10:45:20;;;;;;;2.80;1.97;;;25.50;86.50;;;;;;5009906;28;20459;-64
2022/05/12 10:48:18;;;;;;;2.37;1.80;;;25.50;85.40;;;;;;5005429;28;20505;-64
2022/05/12 10:50:57;;;;;;;2.50;2.00;;;25.50;85.50;;;;;;5008635;28;20969;-64
2022/05/12 10:53:46;;;;;;;2.53;2.00;;;25.60;85.90;;;;;;5010997;28;20466;-64
2022/05/12 10:56:29;;;;;;;2.90;2.00;;;25.30;85.10;;;;;;5003410;28;20513;-64
2022/05/12 10:59:13;;;;;;;3.03;1.90;;;25.20;87.10;;;;;;5010574;28;20962;-64
2022/05/12 11:01:48;;;;;;;2.90;2.30;;;25.50;86.90;;;;;;5010534;28;20946;-64
2022/05/12 11:04:23;;;;;;;3.40;2.40;;;25.40;86.80;;;;;;5010411;28;20459;-64
2022/05/12 11:06:55;;;;;;;4.60;2.63;;;25.70;85.40;;;;;;5011081;28;20454;-64
2022/05/12 11:09:30;;;;;;;2.63;1.97;;;25.80;85.30;;;;;;5008331;28;20459;-64
2022/05/12 11:12:01;;;;;;;2.73;2.00;;;26.10;84.10;;;;;;5009963;28;20494;-64
2022/05/12 11:14:33;;;;;;;3.00;2.10;;;26.20;83.80;;;;;;5011813;28;20451;-64
2022/05/12 11:17:10;;;;;;;3.77;2.03;;;26.30;83.40;;;;;;5013313;28;20459;-65
2022/05/12 11:19:44;;;;;;;4.03;2.27;;;26.20;83.50;;;;;;5013182;28;20798;-64
2022/05/12 11:22:27;;;;;;;3.53;2.27;;;26.00;83.60;;;;;;5013317;28;20474;-64
2022/05/12 11:24:59;;;;;;;3.10;2.10;;;26.00;83.50;;;;;;5012912;28;20456;-64
2022/05/12 11:27:44;;;;;;;3.03;2.27;;;25.70;84.30;;;;;;5013050;28;20554;-64
2022/05/12 11:30:31;;;;;;;3.70;2.23;;;25.90;85.80;;;;;;5012922;28;21021;-64
2022/05/12 11:33:08;;;;;;;2.87;2.30;;;26.40;84.10;;;;;;5012828;28;20510;-64
2022/05/12 11:35:41;;;;;;;3.50;2.30;;;26.90;83.50;;;;;;5011549;28;20467;-64
2022/05/12 11:38:33;;;;;;;3.07;2.47;;;27.30;80.50;;;;;;5012678;28;20455;-64
2022/05/12 11:41:00;;;;;;;2.63;2.27;;;27.30;81.00;;;;;;5012657;28;20643;-65
2022/05/12 11:46:50;;;;;;;3.20;2.27;;;27.60;81.30;;;;;;5012843;28;20510;-64
2022/05/12 11:49:57;;;;;;;3.67;2.77;;;27.50;81.60;;;;;;5009909;28;20459;-64
2022/05/12 11:52:40;;;;;;;2.90;2.07;;;27.80;81.10;;;;;;5003860;28;20908;-64
2022/05/12 11:55:21;;;;;;;3.33;2.23;;;27.90;79.80;;;;;;5012241;28;20961;-64
2022/05/12 11:58:04;;;;;;;3.27;2.37;;;28.10;79.20;;;;;;5012378;28;20463;-64
2022/05/12 12:00:55;;;;;;;2.00;1.70;;;28.20;77.80;;;;;;5012210;28;20550;-64
2022/05/12 12:03:56;;;;;;;4.70;2.70;;;28.50;78.70;;;;;;5012022;28;20946;-64
2022/05/12 12:06:53;;;;;;;2.60;2.17;;;28.70;78.50;;;;;;5007508;28;20474;-64
2022/05/12 12:09:54;;;;;;;7.83;2.10;;;28.90;76.70;;;;;;5012078;28;20467;-64
2022/05/12 12:12:57;;;;;;;3.60;2.20;;;29.20;78.60;;;;;;5011984;28;21008;-64
2022/05/12 12:16:04;;;;;;;3.40;2.57;;;29.50;76.90;;;;;;5011946;28;20877;-64
2022/05/12 12:19:03;;;;;;;4.27;2.50;;;29.50;75.30;;;;;;5012308;28;20490;-65
2022/05/12 12:21:46;;;;;;;4.70;2.53;;;29.20;75.50;;;;;;5011934;28;20482;-64
2022/05/12 12:24:50;;;;;;;2.43;1.97;;;29.40;76.90;;;;;;5011729;28;20479;-64
2022/05/12 12:27:34;;;;;;;2.60;1.97;;;29.50;76.00;;;;;;5011864;28;20834;-64
2022/05/12 12:30:38;;;;;;;3.27;2.40;;;29.80;75.10;;;;;;5011022;28;20470;-64
2022/05/12 12:33:21;;;;;;;2.57;2.17;;;29.60;75.60;;;;;;4951230;29;20482;-65
2022/05/12 12:36:06;;;;;;;3.13;2.30;;;29.80;77.70;;;;;;4951223;29;20462;-64
2022/05/12 12:39:04;;;;;;;4.87;2.53;;;30.10;75.90;;;;;;4993897;28;20894;-64
2022/05/12 12:41:36;;;;;;;3.33;2.40;;;30.20;75.00;;;;;;5011657;28;20938;-64
2022/05/12 12:44:12;;;;;;;4.17;2.53;;;30.10;73.10;;;;;;5011763;28;20843;-64
2022/05/12 12:46:50;;;;;;;2.70;2.20;;;30.10;73.50;;;;;;5011687;28;20813;-64
2022/05/12 12:49:22;;;;;;;2.87;2.50;;;30.50;75.10;;;;;;5011189;28;20475;-65
2022/05/12 12:51:57;;;;;;;3.00;2.43;;;30.80;73.80;;;;;;5009947;28;20491;-65
2022/05/12 12:57:16;;;;;;;2.87;2.40;;;30.90;72.40;;;;;;5011868;28;20447;-64
2022/05/12 12:59:50;;;;;;;3.03;2.27;;;31.00;72.50;;;;;;5012087;28;20459;-64
2022/05/12 13:02:31;;;;;;;2.80;2.20;;;31.10;73.00;;;;;;5008210;28;20529;-64
2022/05/12 13:05:02;;;;;;;3.83;2.53;;;31.30;70.80;;;;;;5010125;28;20469;-64
2022/05/12 13:07:32;;;;;;;2.40;2.10;;;31.30;71.80;;;;;;5010338;28;20204;-65
2022/05/12 13:10:01;;;;;;;4.33;2.27;;;31.30;70.70;;;;;;5011485;28;20483;-64
2022/05/12 13:12:29;;;;;;;2.50;2.03;;;31.10;71.30;;;;;;5010311;28;21466;-65
2022/05/12 13:15:00;;;;;;;2.53;2.23;;;31.00;71.80;;;;;;5010340;28;20463;-64
2022/05/12 13:17:30;;;;;;;2.37;2.17;;;30.80;72.80;;;;;;5011092;28;20550;-64
2022/05/12 13:20:00;;;;;;;3.67;2.33;;;30.80;71.60;;;;;;5008869;28;20468;-64
2022/05/12 13:22:31;;;;;;;3.00;2.23;;;30.90;73.70;;;;;;5012023;28;20510;-64
2022/05/12 13:24:58;;;;;;;3.80;2.27;;;31.00;72.70;;;;;;5010103;28;20468;-64
2022/05/12 13:27:35;;;;;;;2.93;2.30;;;30.80;71.00;;;;;;5010560;28;20456;-65
2022/05/12 13:30:05;;;;;;;2.73;1.97;;;30.80;70.20;;;;;;5011861;28;20479;-64
2022/05/12 13:32:39;;;;;;;4.20;2.53;;;30.90;71.30;;;;;;5012224;28;20479;-64
2022/05/12 13:35:11;;;;;;;4.70;2.77;;;31.00;71.40;;;;;;5013658;28;20467;-64